Time;durP1;ratioP1;P1;durP2;ratioP2;P2;SDS_P1;SDS_P2;PMS_P1;PMS_P2;Temp;Humidity;BMP_temperature;BMP_pressure;BME280_temperature;BME280_humidity;BME280_pressure;Samples;Min_cycle;Max_cycle;Signal;HPM_P1;HPM_P2
2022/09/27 00:01:36;;;;;;;;;;;9.30;99.90;;;;;;5029479;28;19925;-88
2022/09/27 00:04:02;;;;;;;;;;;9.30;99.90;;;;;;5027894;28;19959;-88
2022/09/27 00:06:29;;;;;;;;;;;9.20;99.90;;;;;;5010075;28;19925;-87
2022/09/27 00:08:55;;;;;;;;;;;9.20;99.90;;;;;;5025239;28;19925;-87
2022/09/27 00:11:38;;;;;;;;;;;9.20;99.90;;;;;;5030313;28;19940;-88
2022/09/27 00:14:04;;;;;;;;;;;9.20;99.90;;;;;;5029519;28;20027;-88
2022/09/27 00:16:32;;;;;;;;;;;9.20;99.90;;;;;;5026695;28;20355;-88
2022/09/27 00:18:59;;;;;;;;;;;9.30;99.90;;;;;;5043485;28;20010;-88
2022/09/27 00:21:25;;;;;;;;;;;9.30;99.90;;;;;;5015689;28;20453;-88
2022/09/27 00:23:50;;;;;;;;;;;9.30;99.90;;;;;;5022674;28;19924;-88
2022/09/27 00:26:16;;;;;;;;;;;9.30;99.90;;;;;;5036493;28;19924;-87
2022/09/27 00:28:42;;;;;;;;;;;9.30;99.90;;;;;;5018045;28;19925;-89
2022/09/27 00:31:21;;;;;;;;;;;9.40;99.90;;;;;;5017802;28;19941;-88
2022/09/27 00:33:47;;;;;;;;;;;9.30;99.90;;;;;;5022357;28;19932;-88
2022/09/27 00:36:13;;;;;;;;;;;9.30;99.90;;;;;;5011815;28;19929;-88
2022/09/27 00:38:41;;;;;;;;;;;9.30;99.90;;;;;;5034400;28;19932;-88
2022/09/27 00:41:18;;;;;;;;;;;9.30;99.90;;;;;;5011943;28;20019;-88
2022/09/27 00:43:43;;;;;;;;;;;9.30;99.90;;;;;;5056411;28;19976;-88
2022/09/27 00:46:09;;;;;;;;;;;9.30;99.90;;;;;;5020450;28;19933;-88
2022/09/27 00:48:35;;;;;;;;;;;9.30;99.90;;;;;;5029311;28;19933;-88
2022/09/27 00:51:04;;;;;;;;;;;9.30;99.90;;;;;;5014995;28;20023;-88
2022/09/27 00:53:35;;;;;;;;;;;9.20;99.90;;;;;;5023606;28;19925;-88
2022/09/27 00:56:04;;;;;;;;;;;9.10;99.90;;;;;;5019213;28;20272;-88
2022/09/27 00:58:31;;;;;;;;;;;9.10;99.90;;;;;;5022342;28;19925;-87
2022/09/27 01:01:02;;;;;;;;;;;9.00;99.90;;;;;;5020915;28;20435;-88
2022/09/27 01:03:40;;;;;;;;;;;8.90;99.90;;;;;;5031785;28;19987;-88
2022/09/27 01:06:08;;;;;;;;;;;8.90;99.90;;;;;;5049996;28;19928;-87
2022/09/27 01:08:34;;;;;;;;;;;8.90;99.90;;;;;;5031196;28;19947;-88
2022/09/27 01:11:10;;;;;;;;;;;8.90;99.90;;;;;;5030589;28;19954;-87
2022/09/27 01:13:45;;;;;;;;;;;8.90;99.90;;;;;;5021812;28;19979;-88
2022/09/27 01:16:16;;;;;;;;;;;8.80;99.90;;;;;;5016917;28;20329;-88
2022/09/27 01:18:48;;;;;;;;;;;8.80;99.90;;;;;;5020788;28;19991;-88
2022/09/27 01:21:14;;;;;;;;;;;8.70;99.90;;;;;;5019442;28;20286;-89
2022/09/27 01:23:42;;;;;;;;;;;8.70;99.90;;;;;;5043851;28;19950;-87
2022/09/27 01:26:08;;;;;;;;;;;8.70;99.90;;;;;;5035448;28;19925;-87
2022/09/27 01:28:33;;;;;;;;;;;8.80;99.90;;;;;;5014969;28;20312;-87
2022/09/27 01:30:59;;;;;;;;;;;8.80;99.90;;;;;;5018528;28;19963;-88
2022/09/27 01:33:39;;;;;;;;;;;8.90;99.90;;;;;;5014942;28;19925;-88
2022/09/27 01:36:11;;;;;;;;;;;8.90;99.90;;;;;;5024541;28;20327;-89
2022/09/27 01:38:36;;;;;;;;;;;9.00;99.90;;;;;;5028762;28;19928;-88
2022/09/27 01:41:09;;;;;;;;;;;9.10;99.90;;;;;;5026157;28;19980;-88
2022/09/27 01:43:56;;;;;;;;;;;9.10;99.90;;;;;;5028766;28;20007;-88
2022/09/27 01:46:43;;;;;;;;;;;9.10;99.90;;;;;;5027463;28;19947;-88
2022/09/27 01:49:12;;;;;;;;;;;9.10;99.90;;;;;;5028347;28;19925;-88
2022/09/27 01:51:40;;;;;;;;;;;9.10;99.90;;;;;;5033243;28;19932;-88
2022/09/27 01:54:08;;;;;;;;;;;9.20;99.90;;;;;;5035028;28;19925;-88
2022/09/27 01:56:44;;;;;;;;;;;9.20;99.90;;;;;;5026191;28;19975;-88
2022/09/27 01:59:12;;;;;;;;;;;9.20;99.90;;;;;;5039500;28;20438;-89
2022/09/27 02:01:39;;;;;;;;;;;9.20;99.90;;;;;;5026362;28;19928;-88
2022/09/27 02:04:15;;;;;;;;;;;9.30;99.90;;;;;;5024722;28;19964;-91
2022/09/27 02:06:44;;;;;;;;;;;9.20;99.90;;;;;;5040329;28;20260;-87
2022/09/27 02:09:18;;;;;;;;;;;9.30;99.90;;;;;;5029026;28;19935;-89
2022/09/27 02:11:48;;;;;;;;;;;9.20;99.90;;;;;;5029083;28;20364;-89
2022/09/27 02:14:28;;;;;;;;;;;9.20;99.90;;;;;;5030479;28;20285;-88
2022/09/27 02:17:02;;;;;;;;;;;9.20;99.90;;;;;;5029600;28;20008;-88
2022/09/27 02:19:34;;;;;;;;;;;9.20;99.90;;;;;;5036810;28;20272;-88
2022/09/27 02:22:02;;;;;;;;;;;9.10;99.90;;;;;;5024612;28;19988;-88
2022/09/27 02:24:32;;;;;;;;;;;9.10;99.90;;;;;;5027929;28;19984;-87
2022/09/27 02:27:06;;;;;;;;;;;9.00;99.90;;;;;;5025905;28;20285;-87
2022/09/27 02:29:35;;;;;;;;;;;9.00;99.90;;;;;;5044627;28;19952;-87
2022/09/27 02:32:01;;;;;;;;;;;9.00;99.90;;;;;;5030717;28;19925;-87
2022/09/27 02:34:28;;;;;;;;;;;9.00;99.90;;;;;;5032407;28;20023;-87
2022/09/27 02:36:54;;;;;;;;;;;9.00;99.90;;;;;;5039835;28;19925;-88
2022/09/27 02:39:20;;;;;;;;;;;9.00;99.90;;;;;;5014574;28;19932;-87
2022/09/27 02:41:46;;;;;;;;;;;9.00;99.90;;;;;;5025930;28;19924;-87
2022/09/27 02:44:13;;;;;;;;;;;9.00;99.90;;;;;;5025855;28;19925;-88
2022/09/27 02:46:54;;;;;;;;;;;8.90;99.90;;;;;;5032936;28;19987;-88
2022/09/27 02:49:28;;;;;;;;;;;8.90;99.90;;;;;;5032413;28;19936;-88
2022/09/27 02:52:03;;;;;;;;;;;8.80;99.90;;;;;;5022402;28;19948;-88
2022/09/27 02:54:28;;;;;;;;;;;8.80;99.90;;;;;;5026475;28;19925;-88
2022/09/27 02:57:00;;;;;;;;;;;8.80;99.90;;;;;;5036273;28;19987;-88
2022/09/27 02:59:31;;;;;;;;;;;8.80;99.90;;;;;;5028273;28;19932;-88
2022/09/27 03:02:17;;;;;;;;;;;8.80;99.90;;;;;;5033558;28;19925;-88
2022/09/27 03:04:45;;;;;;;;;;;8.70;99.90;;;;;;5048615;28;19928;-88
2022/09/27 03:07:12;;;;;;;;;;;8.80;99.90;;;;;;5033120;28;20280;-88
2022/09/27 03:09:43;;;;;;;;;;;8.80;99.90;;;;;;5034076;28;19925;-88
2022/09/27 03:12:09;;;;;;;;;;;8.70;99.90;;;;;;5050036;28;19925;-88
2022/09/27 03:14:34;;;;;;;;;;;8.70;99.90;;;;;;5027577;28;19931;-88
2022/09/27 03:17:00;;;;;;;;;;;8.80;99.90;;;;;;5017061;28;19925;-88
2022/09/27 03:19:26;;;;;;;;;;;8.80;99.90;;;;;;5028462;28;19940;-86
2022/09/27 03:21:51;;;;;;;;;;;8.80;99.90;;;;;;5008068;28;19947;-87
2022/09/27 03:24:17;;;;;;;;;;;8.80;99.90;;;;;;5010596;28;19932;-87
2022/09/27 03:26:42;;;;;;;;;;;8.80;99.90;;;;;;5012681;28;19928;-89
2022/09/27 03:29:08;;;;;;;;;;;8.80;99.90;;;;;;5012791;28;19935;-88
2022/09/27 03:31:34;;;;;;;;;;;8.80;99.90;;;;;;5047299;28;19925;-87
2022/09/27 03:33:59;;;;;;;;;;;8.80;99.90;;;;;;5018978;28;19931;-87
2022/09/27 03:36:25;;;;;;;;;;;8.80;99.90;;;;;;5033660;28;19932;-87
2022/09/27 03:38:50;;;;;;;;;;;8.80;99.90;;;;;;5028691;28;20017;-89
2022/09/27 03:41:16;;;;;;;;;;;8.80;99.90;;;;;;5013317;28;20011;-87
2022/09/27 03:43:41;;;;;;;;;;;8.80;99.90;;;;;;5018111;28;20023;-89
2022/09/27 03:46:07;;;;;;;;;;;8.70;99.90;;;;;;5028990;28;19932;-87
2022/09/27 03:48:33;;;;;;;;;;;8.70;99.90;;;;;;5018990;28;19929;-88
2022/09/27 03:50:58;;;;;;;;;;;8.70;99.90;;;;;;5030656;28;19925;-87
2022/09/27 03:53:24;;;;;;;;;;;8.60;99.90;;;;;;5051791;28;19932;-88
2022/09/27 03:55:49;;;;;;;;;;;8.70;99.90;;;;;;5035683;28;19924;-88
2022/09/27 03:58:15;;;;;;;;;;;8.60;99.90;;;;;;5011720;28;19967;-88
2022/09/27 04:00:42;;;;;;;;;;;8.60;99.90;;;;;;5010821;28;20335;-88
2022/09/27 04:03:08;;;;;;;;;;;8.60;99.90;;;;;;5011885;28;20408;-88
2022/09/27 04:05:34;;;;;;;;;;;8.60;99.90;;;;;;5021585;28;20004;-87
2022/09/27 04:07:59;;;;;;;;;;;8.70;99.90;;;;;;5028018;28;19925;-87
2022/09/27 04:10:25;;;;;;;;;;;8.70;99.90;;;;;;5010086;28;19975;-88
2022/09/27 04:12:50;;;;;;;;;;;8.70;99.90;;;;;;5017092;28;20016;-88
2022/09/27 04:15:16;;;;;;;;;;;8.70;99.90;;;;;;5040479;28;20478;-89
2022/09/27 04:17:42;;;;;;;;;;;8.70;99.90;;;;;;5034762;28;19925;-88
2022/09/27 04:20:09;;;;;;;;;;;9.00;99.90;;;;;;5017876;28;19924;-88
2022/09/27 04:22:37;;;;;;;;;;;8.70;99.90;;;;;;5019248;28;19932;-88
2022/09/27 04:25:03;;;;;;;;;;;8.80;99.90;;;;;;5025826;28;19971;-89
2022/09/27 04:27:28;;;;;;;;;;;8.80;99.90;;;;;;5035157;28;19925;-88
2022/09/27 04:29:54;;;;;;;;;;;8.70;99.90;;;;;;5022332;28;19925;-88
2022/09/27 04:32:20;;;;;;;;;;;8.70;99.90;;;;;;5033832;28;19928;-87
2022/09/27 04:37:30;;;;;;;;;;;8.70;99.90;;;;;;5038756;28;20420;-87
2022/09/27 04:39:55;;;;;;;;;;;8.70;99.90;;;;;;5044671;28;19971;-88
2022/09/27 04:42:21;;;;;;;;;;;8.70;99.90;;;;;;5022837;28;19924;-88
2022/09/27 04:44:47;;;;;;;;;;;8.70;99.90;;;;;;5013681;28;19924;-88
2022/09/27 04:47:12;;;;;;;;;;;8.70;99.90;;;;;;5011434;28;19928;-88
2022/09/27 04:49:38;;;;;;;;;;;8.70;99.90;;;;;;5037829;28;19932;-88
2022/09/27 04:52:04;;;;;;;;;;;8.70;99.90;;;;;;5020401;28;19932;-89
2022/09/27 04:54:30;;;;;;;;;;;8.70;99.90;;;;;;5027046;28;20412;-88
2022/09/27 04:56:56;;;;;;;;;;;8.70;99.90;;;;;;5012464;28;19956;-88
2022/09/27 04:59:21;;;;;;;;;;;8.70;99.90;;;;;;5032621;28;19931;-88
2022/09/27 05:01:49;;;;;;;;;;;8.70;99.90;;;;;;5008359;28;20000;-88
2022/09/27 05:04:14;;;;;;;;;;;8.70;99.90;;;;;;5025510;28;19925;-88
2022/09/27 05:06:40;;;;;;;;;;;8.70;99.90;;;;;;5025866;28;20300;-88
2022/09/27 05:09:05;;;;;;;;;;;8.70;99.90;;;;;;5011038;28;19932;-89
2022/09/27 05:11:31;;;;;;;;;;;8.70;99.90;;;;;;5006220;28;19925;-89
2022/09/27 05:13:57;;;;;;;;;;;8.70;99.90;;;;;;5018888;28;19924;-89
2022/09/27 05:16:23;;;;;;;;;;;8.70;99.90;;;;;;5011833;28;19936;-89
2022/09/27 05:18:49;;;;;;;;;;;8.70;99.90;;;;;;5027688;28;19925;-89
2022/09/27 05:21:15;;;;;;;;;;;8.70;99.90;;;;;;5019293;28;19931;-88
2022/09/27 05:23:40;;;;;;;;;;;8.70;99.90;;;;;;5012545;28;19924;-88
2022/09/27 05:26:06;;;;;;;;;;;8.70;99.90;;;;;;5008308;28;20019;-90
2022/09/27 05:28:33;;;;;;;;;;;8.70;99.90;;;;;;5027347;28;19932;-87
2022/09/27 05:31:02;;;;;;;;;;;8.70;99.90;;;;;;5033920;28;19924;-88
2022/09/27 05:33:28;;;;;;;;;;;8.60;99.90;;;;;;5025637;28;19925;-90
2022/09/27 05:35:54;;;;;;;;;;;8.70;99.90;;;;;;5008845;28;19988;-89
2022/09/27 05:38:20;;;;;;;;;;;8.70;99.90;;;;;;5014654;28;19932;-88
2022/09/27 05:40:48;;;;;;;;;;;8.70;99.90;;;;;;5020698;28;19924;-88
2022/09/27 05:43:14;;;;;;;;;;;8.70;99.90;;;;;;5006666;28;20363;-89
2022/09/27 05:45:51;;;;;;;;;;;8.70;99.90;;;;;;5024348;28;19950;-87
2022/09/27 05:48:23;;;;;;;;;;;8.70;99.90;;;;;;5026103;28;19975;-89
2022/09/27 05:50:52;;;;;;;;;;;8.70;99.90;;;;;;5016075;28;19924;-89
2022/09/27 05:53:17;;;;;;;;;;;8.70;99.90;;;;;;5031906;28;19924;-89
2022/09/27 05:55:43;;;;;;;;;;;8.70;99.90;;;;;;5025735;28;19932;-89
2022/09/27 05:58:09;;;;;;;;;;;8.70;99.90;;;;;;5003926;28;19924;-87
2022/09/27 06:00:37;;;;;;;;;;;8.60;99.90;;;;;;5006659;28;19936;-89
2022/09/27 06:03:04;;;;;;;;;;;8.60;99.90;;;;;;5035647;28;19936;-87
2022/09/27 06:05:33;;;;;;;;;;;8.60;99.90;;;;;;5042326;28;19925;-87
2022/09/27 06:08:03;;;;;;;;;;;8.60;99.90;;;;;;5022507;28;19925;-87
2022/09/27 06:10:30;;;;;;;;;;;8.60;99.90;;;;;;5030526;28;19951;-87
2022/09/27 06:13:05;;;;;;;;;;;8.60;99.90;;;;;;5012570;28;19969;-86
2022/09/27 06:15:32;;;;;;;;;;;8.60;99.90;;;;;;5022793;28;19971;-87
2022/09/27 06:18:06;;;;;;;;;;;8.60;99.90;;;;;;5028669;28;19925;-87
2022/09/27 06:20:35;;;;;;;;;;;8.60;99.90;;;;;;5032218;28;19924;-87
2022/09/27 06:23:04;;;;;;;;;;;8.60;99.90;;;;;;5020066;28;19925;-88
2022/09/27 06:25:33;;;;;;;;;;;8.60;99.90;;;;;;5011079;28;19931;-88
2022/09/27 06:27:58;;;;;;;;;;;8.60;99.90;;;;;;5024955;28;19924;-87
2022/09/27 06:30:25;;;;;;;;;;;8.60;99.90;;;;;;5021716;28;19997;-86
2022/09/27 06:32:58;;;;;;;;;;;8.60;99.90;;;;;;5002258;28;20392;-87
2022/09/27 06:35:24;;;;;;;;;;;8.60;99.90;;;;;;5009529;28;20031;-87
2022/09/27 06:37:50;;;;;;;;;;;8.60;99.90;;;;;;5026822;28;20513;-87
2022/09/27 06:40:17;;;;;;;;;;;8.60;99.90;;;;;;5049445;28;20026;-88
2022/09/27 06:42:42;;;;;;;;;;;8.60;99.90;;;;;;5029874;28;19929;-87
2022/09/27 06:45:08;;;;;;;;;;;8.60;99.90;;;;;;5024448;28;19939;-87
2022/09/27 06:47:34;;;;;;;;;;;8.70;99.90;;;;;;5012795;28;19996;-87
2022/09/27 06:50:04;;;;;;;;;;;8.60;99.90;;;;;;5042975;28;19939;-87
2022/09/27 06:52:30;;;;;;;;;;;8.70;99.90;;;;;;5025230;28;19931;-87
2022/09/27 06:54:56;;;;;;;;;;;8.80;99.90;;;;;;5032213;28;20364;-87
2022/09/27 07:00:25;;;;;;;;;;;8.80;99.90;;;;;;5043640;28;19925;-87
2022/09/27 07:02:52;;;;;;;;;;;8.80;99.90;;;;;;5020574;28;19960;-87
2022/09/27 07:05:17;;;;;;;;;;;8.90;99.90;;;;;;5009913;28;19925;-87
2022/09/27 07:07:43;;;;;;;;;;;8.90;99.90;;;;;;5038884;28;19931;-87
2022/09/27 07:10:09;;;;;;;;;;;9.00;99.90;;;;;;5033686;28;19980;-87
2022/09/27 07:12:35;;;;;;;;;;;9.00;99.90;;;;;;5034629;28;19939;-88
2022/09/27 07:15:01;;;;;;;;;;;9.00;99.90;;;;;;5031197;28;19925;-87
2022/09/27 07:17:27;;;;;;;;;;;9.00;99.90;;;;;;5049179;28;19924;-87
2022/09/27 07:19:55;;;;;;;;;;;9.00;99.90;;;;;;5015254;28;19928;-88
2022/09/27 07:22:21;;;;;;;;;;;9.10;99.90;;;;;;5026964;28;19925;-87
2022/09/27 07:24:47;;;;;;;;;;;9.10;99.90;;;;;;5027747;28;19932;-87
2022/09/27 07:27:14;;;;;;;;;;;9.10;99.90;;;;;;5036741;28;19933;-87
2022/09/27 07:29:39;;;;;;;;;;;9.20;99.90;;;;;;5035926;28;19931;-87
2022/09/27 07:32:06;;;;;;;;;;;9.30;99.90;;;;;;5036160;28;19924;-86
2022/09/27 07:34:35;;;;;;;;;;;9.40;99.90;;;;;;5026796;28;20407;-87
2022/09/27 07:37:04;;;;;;;;;;;9.50;99.90;;;;;;5027502;28;19932;-87
2022/09/27 07:39:30;;;;;;;;;;;9.60;99.90;;;;;;5026549;28;19999;-87
2022/09/27 07:41:56;;;;;;;;;;;9.70;99.90;;;;;;5033872;28;19967;-86
2022/09/27 07:44:21;;;;;;;;;;;9.70;99.90;;;;;;5031020;28;19932;-86
2022/09/27 07:46:47;;;;;;;;;;;9.80;99.90;;;;;;5021658;28;19925;-87
2022/09/27 07:49:13;;;;;;;;;;;9.80;99.90;;;;;;5010248;28;19968;-86
2022/09/27 07:51:38;;;;;;;;;;;9.90;99.90;;;;;;5039207;28;19933;-87
2022/09/27 07:54:07;;;;;;;;;;;9.90;99.90;;;;;;5017618;28;19924;-86
2022/09/27 07:56:35;;;;;;;;;;;9.60;99.90;;;;;;5013626;28;19928;-87
2022/09/27 07:59:01;;;;;;;;;;;9.90;99.90;;;;;;5037093;28;19932;-87
2022/09/27 08:01:26;;;;;;;;;;;9.80;99.90;;;;;;5038255;28;19925;-87
2022/09/27 08:03:52;;;;;;;;;;;9.70;99.90;;;;;;5012169;28;19936;-87
2022/09/27 08:06:18;;;;;;;;;;;9.60;99.90;;;;;;5046415;28;20297;-88
2022/09/27 08:08:44;;;;;;;;;;;9.50;99.90;;;;;;5028188;28;19936;-86
2022/09/27 08:11:15;;;;;;;;;;;9.40;99.90;;;;;;5048054;28;19924;-87
2022/09/27 08:13:41;;;;;;;;;;;9.40;99.90;;;;;;5042857;28;19929;-87
2022/09/27 08:16:07;;;;;;;;;;;9.50;99.90;;;;;;5042928;28;20353;-87
2022/09/27 08:18:32;;;;;;;;;;;9.50;99.90;;;;;;5025484;28;19928;-87
2022/09/27 08:20:58;;;;;;;;;;;9.50;99.90;;;;;;5033616;28;19947;-87
2022/09/27 08:23:24;;;;;;;;;;;9.60;99.90;;;;;;5028618;28;19932;-88
2022/09/27 08:25:52;;;;;;;;;;;9.50;99.90;;;;;;5049450;28;19932;-87
2022/09/27 08:28:17;;;;;;;;;;;9.60;99.90;;;;;;5045681;28;19925;-87
2022/09/27 08:30:43;;;;;;;;;;;9.70;99.90;;;;;;5030389;28;19931;-86
2022/09/27 08:33:09;;;;;;;;;;;9.80;99.90;;;;;;5005940;28;19925;-87
2022/09/27 08:35:35;;;;;;;;;;;9.90;99.90;;;;;;5015808;28;19950;-88
2022/09/27 08:38:01;;;;;;;;;;;10.00;99.90;;;;;;5026398;28;19940;-87
2022/09/27 08:40:45;;;;;;;;;;;10.10;99.90;;;;;;5028659;28;19929;-87
2022/09/27 08:43:17;;;;;;;;;;;10.20;99.90;;;;;;5031917;28;19926;-87
2022/09/27 08:45:54;;;;;;;;;;;10.30;99.90;;;;;;5033608;28;20459;-87
2022/09/27 08:48:21;;;;;;;;;;;10.40;99.90;;;;;;5026345;28;19924;-87
2022/09/27 08:50:48;;;;;;;;;;;10.60;99.90;;;;;;5048683;28;19925;-87
2022/09/27 08:53:23;;;;;;;;;;;10.60;99.90;;;;;;5029516;28;19963;-87
2022/09/27 08:55:59;;;;;;;;;;;10.50;99.90;;;;;;5027487;28;20015;-87
2022/09/27 08:58:25;;;;;;;;;;;10.70;99.90;;;;;;5031500;28;19939;-87
2022/09/27 09:00:54;;;;;;;;;;;10.70;99.90;;;;;;5035551;28;19924;-87
2022/09/27 09:03:21;;;;;;;;;;;10.40;99.90;;;;;;5045018;28;19924;-86
2022/09/27 09:06:09;;;;;;;;;;;10.60;99.90;;;;;;5024307;28;19940;-86
2022/09/27 09:08:34;;;;;;;;;;;10.60;99.90;;;;;;5051904;28;19950;-87
2022/09/27 09:14:03;;;;;;;;;;;10.70;99.90;;;;;;5035591;28;19974;-87
2022/09/27 09:16:51;;;;;;;;;;;10.80;99.90;;;;;;5024389;28;20400;-86
2022/09/27 09:19:35;;;;;;;;;;;10.90;99.90;;;;;;4983592;28;19924;-87
2022/09/27 09:22:04;;;;;;;;;;;10.90;99.90;;;;;;5032928;28;19924;-87
2022/09/27 09:24:29;;;;;;;;;;;11.00;99.90;;;;;;5034187;28;20007;-87
2022/09/27 09:26:58;;;;;;;;;;;11.10;99.90;;;;;;5029817;28;19932;-87
2022/09/27 09:29:36;;;;;;;;;;;11.20;99.90;;;;;;5042465;28;20641;-86
2022/09/27 09:32:05;;;;;;;;;;;11.20;99.90;;;;;;5044749;28;19930;-87
2022/09/27 09:34:33;;;;;;;;;;;11.30;99.90;;;;;;5048056;28;19970;-87
2022/09/27 09:37:31;;;;;;;;;;;11.40;99.90;;;;;;5027868;28;20280;-87
2022/09/27 09:40:01;;;;;;;;;;;11.60;99.90;;;;;;4988966;28;19924;-87
2022/09/27 09:42:29;;;;;;;;;;;11.70;99.90;;;;;;5042617;28;19947;-86
2022/09/27 09:45:00;;;;;;;;;;;11.70;99.90;;;;;;5035851;28;20020;-88
2022/09/27 09:47:45;;;;;;;;;;;11.70;99.90;;;;;;5030647;28;19931;-87
2022/09/27 09:50:31;;;;;;;;;;;11.60;99.90;;;;;;5028487;28;20059;-87
2022/09/27 09:53:17;;;;;;;;;;;11.20;99.90;;;;;;5043020;28;19924;-88
2022/09/27 09:55:47;;;;;;;;;;;10.90;99.90;;;;;;5023250;28;19986;-87
2022/09/27 09:58:32;;;;;;;;;;;10.70;99.90;;;;;;5049890;28;19946;-87
2022/09/27 10:01:02;;;;;;;;;;;10.50;99.90;;;;;;5026919;28;19928;-87
2022/09/27 10:03:27;;;;;;;;;;;10.40;99.90;;;;;;5028262;28;19979;-88
2022/09/27 10:05:53;;;;;;;;;;;10.30;99.90;;;;;;5041913;28;19929;-87
2022/09/27 10:08:20;;;;;;;;;;;10.20;99.90;;;;;;5048627;28;19975;-87
2022/09/27 10:10:46;;;;;;;;;;;10.20;99.90;;;;;;5027602;28;19924;-87
2022/09/27 10:13:35;;;;;;;;;;;10.10;99.90;;;;;;5034538;28;19971;-87
2022/09/27 10:16:09;;;;;;;;;;;10.00;99.90;;;;;;5031774;28;20348;-87
2022/09/27 10:18:36;;;;;;;;;;;10.00;99.90;;;;;;5037510;28;19924;-87
2022/09/27 10:21:05;;;;;;;;;;;10.10;99.90;;;;;;5032205;28;19925;-87
2022/09/27 10:23:31;;;;;;;;;;;10.10;99.90;;;;;;5029603;28;19924;-87
2022/09/27 10:26:01;;;;;;;;;;;10.10;99.90;;;;;;5015116;28;20273;-87
2022/09/27 10:28:32;;;;;;;;;;;10.20;99.90;;;;;;5037558;28;20011;-87
2022/09/27 10:30:59;;;;;;;;;;;10.30;99.90;;;;;;5030268;28;19929;-87
2022/09/27 10:33:31;;;;;;;;;;;10.40;99.90;;;;;;5038960;28;19928;-87
2022/09/27 10:35:58;;;;;;;;;;;10.50;99.90;;;;;;5031196;28;19925;-88
2022/09/27 10:38:23;;;;;;;;;;;10.70;99.90;;;;;;5032632;28;19924;-87
2022/09/27 10:40:50;;;;;;;;;;;10.90;99.90;;;;;;5034914;28;20424;-87
2022/09/27 10:43:22;;;;;;;;;;;11.10;99.90;;;;;;5034925;28;19933;-87
2022/09/27 10:45:47;;;;;;;;;;;11.30;99.90;;;;;;5043133;28;19929;-87
2022/09/27 10:48:22;;;;;;;;;;;11.40;99.90;;;;;;5035059;28;19932;-87
2022/09/27 10:51:14;;;;;;;;;;;11.50;99.90;;;;;;5043823;28;19946;-87
2022/09/27 10:53:44;;;;;;;;;;;11.60;99.90;;;;;;5028669;28;19964;-87
2022/09/27 10:56:19;;;;;;;;;;;11.60;99.90;;;;;;5028452;28;19924;-87
2022/09/27 10:58:45;;;;;;;;;;;11.40;99.90;;;;;;5029473;28;19925;-88
2022/09/27 11:01:13;;;;;;;;;;;11.30;99.90;;;;;;5032972;28;19974;-88
2022/09/27 11:03:46;;;;;;;;;;;11.20;99.90;;;;;;5045874;28;19931;-87
2022/09/27 11:06:36;;;;;;;;;;;11.00;99.90;;;;;;5032962;28;20369;-87
2022/09/27 11:09:28;;;;;;;;;;;10.70;99.90;;;;;;5031072;28;19932;-86
2022/09/27 11:12:11;;;;;;;;;;;10.50;99.90;;;;;;5023186;28;19964;-86
2022/09/27 11:14:37;;;;;;;;;;;10.20;99.90;;;;;;5030745;28;20311;-87
2022/09/27 11:17:09;;;;;;;;;;;10.10;99.90;;;;;;5047581;28;19999;-87
2022/09/27 11:19:35;;;;;;;;;;;9.90;99.90;;;;;;5027710;28;19925;-86
2022/09/27 11:22:09;;;;;;;;;;;9.90;99.90;;;;;;5039356;28;19930;-86
2022/09/27 11:25:00;;;;;;;;;;;9.80;99.90;;;;;;5041695;28;19939;-87
2022/09/27 11:27:28;;;;;;;;;;;9.80;99.90;;;;;;5036713;28;19935;-86
2022/09/27 11:29:57;;;;;;;;;;;9.80;99.90;;;;;;5036707;28;20335;-87
2022/09/27 11:32:29;;;;;;;;;;;9.40;99.90;;;;;;5038569;28;19928;-86
2022/09/27 11:35:17;;;;;;;;;;;9.80;99.90;;;;;;5032543;28;20254;-87
2022/09/27 11:38:01;;;;;;;;;;;9.90;99.90;;;;;;5027183;28;20338;-87
2022/09/27 11:40:33;;;;;;;;;;;10.00;99.90;;;;;;5031413;28;19932;-87
2022/09/27 11:43:02;;;;;;;;;;;10.20;99.90;;;;;;5042618;28;19924;-87
2022/09/27 11:45:35;;;;;;;;;;;10.40;99.90;;;;;;5034476;28;19925;-87
2022/09/27 11:48:19;;;;;;;;;;;10.60;99.90;;;;;;5033077;28;19925;-86
2022/09/27 11:50:57;;;;;;;;;;;10.90;99.90;;;;;;5024301;28;19925;-86
2022/09/27 11:53:44;;;;;;;;;;;11.10;99.90;;;;;;5030878;28;19943;-87
2022/09/27 11:56:09;;;;;;;;;;;11.30;99.90;;;;;;5035842;28;19925;-87
2022/09/27 11:58:50;;;;;;;;;;;11.50;99.90;;;;;;5030123;28;20472;-87
2022/09/27 12:01:21;;;;;;;;;;;11.70;99.90;;;;;;5025635;28;19925;-88
2022/09/27 12:04:06;;;;;;;;;;;11.90;99.90;;;;;;5031442;28;19936;-87
2022/09/27 12:06:34;;;;;;;;;;;12.20;99.90;;;;;;5043151;28;19925;-87
2022/09/27 12:09:01;;;;;;;;;;;12.30;99.90;;;;;;5030768;28;20407;-88
2022/09/27 12:11:48;;;;;;;;;;;12.20;99.90;;;;;;5047256;28;19931;-88
2022/09/27 12:14:23;;;;;;;;;;;12.10;99.90;;;;;;5027756;28;20335;-87
2022/09/27 12:16:50;;;;;;;;;;;11.90;99.90;;;;;;5023204;28;19932;-88
2022/09/27 12:19:37;;;;;;;;;;;11.70;99.90;;;;;;5017394;28;19924;-88
2022/09/27 12:22:09;;;;;;;;;;;11.60;99.90;;;;;;5035484;28;19992;-87
2022/09/27 12:24:36;;;;;;;;;;;11.50;99.90;;;;;;5045124;28;19925;-88
2022/09/27 12:27:07;;;;;;;;;;;11.50;99.90;;;;;;5044195;28;19932;-87
2022/09/27 12:29:44;;;;;;;;;;;11.50;99.90;;;;;;5042105;28;19925;-88
2022/09/27 12:32:12;;;;;;;;;;;11.50;99.90;;;;;;5023281;28;19925;-88
2022/09/27 12:34:44;;;;;;;;;;;11.50;99.90;;;;;;5024432;28;19980;-88
2022/09/27 12:37:24;;;;;;;;;;;11.60;99.90;;;;;;5029821;28;19940;-88
2022/09/27 12:39:55;;;;;;;;;;;11.60;99.90;;;;;;5038470;28;19967;-87
2022/09/27 12:42:37;;;;;;;;;;;11.80;99.90;;;;;;5028352;28;19964;-87
2022/09/27 12:45:04;;;;;;;;;;;11.80;99.90;;;;;;5025206;28;19999;-87
2022/09/27 12:47:46;;;;;;;;;;;11.80;99.90;;;;;;5027235;28;19932;-88
2022/09/27 12:50:19;;;;;;;;;;;11.80;99.90;;;;;;5042923;28;19929;-88
2022/09/27 12:52:51;;;;;;;;;;;12.00;99.90;;;;;;5025540;28;19932;-88
2022/09/27 12:55:23;;;;;;;;;;;11.70;99.90;;;;;;5042658;28;19925;-87
2022/09/27 12:58:13;;;;;;;;;;;11.80;99.90;;;;;;5020312;28;20302;-87
2022/09/27 13:00:50;;;;;;;;;;;11.80;99.90;;;;;;5038680;28;19928;-88
2022/09/27 13:03:35;;;;;;;;;;;12.20;99.90;;;;;;5045974;28;19924;-88
2022/09/27 13:06:31;;;;;;;;;;;12.30;99.90;;;;;;5025428;28;19925;-87
2022/09/27 13:09:08;;;;;;;;;;;12.50;99.90;;;;;;5010352;28;19931;-87
2022/09/27 13:11:42;;;;;;;;;;;12.80;99.90;;;;;;5042313;28;19968;-88
2022/09/27 13:14:18;;;;;;;;;;;12.90;99.90;;;;;;5043326;28;19947;-88
2022/09/27 13:16:45;;;;;;;;;;;13.00;99.90;;;;;;5045914;28;19931;-88
2022/09/27 13:19:37;;;;;;;;;;;12.90;99.90;;;;;;5031762;28;19924;-87
2022/09/27 13:22:07;;;;;;;;;;;12.80;99.90;;;;;;5040811;28;19929;-88
2022/09/27 13:24:42;;;;;;;;;;;12.70;99.90;;;;;;5034257;28;20416;-88
2022/09/27 13:27:26;;;;;;;;;;;12.50;99.90;;;;;;5038913;28;19936;-88
2022/09/27 13:30:00;;;;;;;;;;;12.50;99.90;;;;;;5040152;28;19928;-85
2022/09/27 13:32:27;;;;;;;;;;;12.40;99.90;;;;;;5026811;28;19947;-87
2022/09/27 13:34:55;;;;;;;;;;;12.30;99.90;;;;;;5022678;28;19929;-86
2022/09/27 13:37:44;;;;;;;;;;;12.30;99.90;;;;;;5060255;28;19940;-86
2022/09/27 13:40:14;;;;;;;;;;;12.20;99.90;;;;;;5018044;28;19933;-87
2022/09/27 13:43:03;;;;;;;;;;;12.00;99.90;;;;;;5052294;28;19963;-86
2022/09/27 13:45:31;;;;;;;;;;;11.80;99.90;;;;;;4977671;28;20843;-87
2022/09/27 13:48:00;;;;;;;;;;;11.40;99.90;;;;;;5034180;28;19924;-87
2022/09/27 13:50:49;;;;;;;;;;;11.00;99.90;;;;;;5007571;28;19925;-86
2022/09/27 13:53:45;;;;;;;;;;;10.80;99.90;;;;;;5033876;28;20029;-86
2022/09/27 13:56:29;;;;;;;;;;;10.60;99.90;;;;;;5020160;28;20430;-86
2022/09/27 13:59:00;;;;;;;;;;;10.40;99.90;;;;;;5026782;28;19996;-85
2022/09/27 14:01:28;;;;;;;;;;;10.10;99.90;;;;;;5031162;28;19924;-85
2022/09/27 14:04:15;;;;;;;;;;;10.00;99.90;;;;;;5039988;28;20494;-87
2022/09/27 14:06:42;;;;;;;;;;;9.90;99.90;;;;;;5027766;28;20009;-87
2022/09/27 14:09:15;;;;;;;;;;;9.80;99.90;;;;;;5031721;28;19924;-87
2022/09/27 14:11:41;;;;;;;;;;;9.90;99.90;;;;;;5014205;28;20339;-87
2022/09/27 14:14:14;;;;;;;;;;;10.00;99.90;;;;;;5030172;28;19924;-87
2022/09/27 14:16:43;;;;;;;;;;;10.20;99.90;;;;;;5027664;28;20288;-85
2022/09/27 14:19:14;;;;;;;;;;;10.30;99.90;;;;;;5026289;28;20361;-85
2022/09/27 14:21:41;;;;;;;;;;;10.40;99.90;;;;;;5031091;28;19929;-85
2022/09/27 14:24:18;;;;;;;;;;;10.50;99.90;;;;;;5029996;28;19925;-85
2022/09/27 14:26:44;;;;;;;;;;;10.50;99.90;;;;;;5049051;28;19925;-85
2022/09/27 14:29:17;;;;;;;;;;;10.50;99.90;;;;;;5012501;28;19982;-85
2022/09/27 14:31:43;;;;;;;;;;;10.60;99.90;;;;;;5035626;28;19935;-85
2022/09/27 14:34:13;;;;;;;;;;;10.60;99.90;;;;;;5031056;28;20431;-85
2022/09/27 14:39:30;;;;;;;;;;;10.60;99.90;;;;;;5053095;28;19924;-86
2022/09/27 14:41:55;;;;;;;;;;;10.70;99.90;;;;;;5023273;28;19925;-86
2022/09/27 14:44:23;;;;;;;;;;;10.70;99.90;;;;;;5048728;28;19932;-86
2022/09/27 14:47:06;;;;;;;;;;;10.60;99.90;;;;;;5036050;28;19925;-85
2022/09/27 14:49:31;;;;;;;;;;;10.70;99.90;;;;;;5028686;28;19979;-84
2022/09/27 14:51:58;;;;;;;;;;;10.80;99.90;;;;;;5026598;28;19925;-85
2022/09/27 14:54:29;;;;;;;;;;;10.70;99.90;;;;;;5003622;28;19925;-85
2022/09/27 14:56:56;;;;;;;;;;;10.70;99.90;;;;;;5024362;28;19924;-86